createdAt,value
2018-11-01T00:01:46.758Z,90.39
2018-11-01T00:06:50.310Z,89.90
2018-11-01T00:11:53.931Z,89.44
2018-11-01T00:16:57.516Z,89.35
2018-11-01T00:22:01.090Z,87.75
2018-11-01T00:27:04.686Z,87.55
2018-11-01T00:32:08.265Z,88.63
2018-11-01T00:37:11.910Z,88.91
2018-11-01T00:42:15.543Z,89.58
2018-11-01T00:47:19.081Z,89.86
2018-11-01T00:52:22.638Z,86.99
2018-11-01T00:57:26.218Z,86.61
2018-11-01T01:02:29.766Z,82.12
2018-11-01T01:07:33.362Z,81.61
2018-11-01T01:12:37.046Z,81.34
2018-11-01T01:17:40.673Z,82.82
2018-11-01T01:22:45.129Z,81.61
2018-11-01T01:27:48.803Z,81.76
2018-11-01T01:32:52.337Z,80.08
2018-11-01T01:38:02.523Z,79.25
2018-11-01T01:43:06.400Z,79.75
2018-11-01T01:48:10.046Z,80.74
2018-11-01T01:53:13.806Z,81.39
2018-11-01T01:58:17.371Z,81.49
2018-11-01T02:03:20.909Z,81.33
2018-11-01T02:08:24.584Z,80.65
2018-11-01T02:13:28.159Z,81.87
2018-11-01T02:18:31.772Z,82.97
2018-11-01T02:23:35.333Z,82.49
2018-11-01T02:28:38.909Z,81.38
2018-11-01T02:33:42.515Z,82.23
2018-11-01T02:38:46.096Z,82.50
2018-11-01T02:43:49.841Z,83.54
2018-11-01T02:48:53.397Z,84.85
2018-11-01T02:53:56.919Z,85.01
2018-11-01T02:59:00.450Z,87.15
2018-11-01T03:04:04.084Z,90.44
2018-11-01T03:09:08.433Z,89.30
2018-11-01T03:14:12.136Z,89.60
2018-11-01T03:19:15.788Z,95.05
2018-11-01T03:24:19.372Z,96.42
2018-11-01T03:29:23.180Z,96.89
2018-11-01T03:34:26.843Z,95.92
2018-11-01T03:39:30.459Z,97.60
2018-11-01T03:44:34.030Z,98.94
2018-11-01T03:49:37.580Z,100.00
2018-11-01T03:54:41.102Z,100.00
2018-11-01T03:59:44.755Z,100.00
2018-11-01T04:04:48.416Z,100.00
2018-11-01T04:09:52.056Z,100.00
2018-11-01T04:14:55.680Z,100.00
2018-11-01T04:19:59.279Z,100.00
2018-11-01T04:25:03.075Z,100.00
2018-11-01T04:30:09.885Z,100.00
2018-11-01T04:35:13.643Z,100.00
2018-11-01T04:40:17.212Z,100.00
2018-11-01T04:45:20.749Z,97.40
2018-11-01T04:50:24.279Z,94.47
2018-11-01T04:55:27.887Z,90.05
2018-11-01T05:00:31.544Z,88.99
2018-11-01T05:05:35.141Z,86.77
2018-11-01T05:10:38.712Z,85.09
2018-11-01T05:15:42.416Z,83.41
2018-11-01T05:20:46.162Z,84.86
2018-11-01T05:25:49.806Z,86.60
2018-11-01T05:30:53.314Z,85.29
2018-11-01T05:35:56.963Z,84.95
2018-11-01T05:41:00.500Z,87.24
2018-11-01T05:46:04.299Z,88.57
2018-11-01T05:51:07.836Z,91.00
2018-11-01T05:56:11.527Z,90.18
2018-11-01T06:01:19.429Z,90.74
2018-11-01T06:06:23.102Z,91.29
2018-11-01T06:11:26.861Z,91.03
2018-11-01T06:16:30.467Z,91.05
2018-11-01T06:21:34.244Z,90.72
2018-11-01T06:26:37.798Z,90.54
2018-11-01T06:31:41.574Z,88.68
2018-11-01T06:36:45.128Z,88.40
2018-11-01T06:41:49.747Z,90.69
2018-11-01T06:46:53.269Z,92.92
2018-11-01T06:51:56.920Z,94.56
2018-11-01T06:57:00.635Z,95.44
2018-11-01T07:02:04.248Z,94.01
2018-11-01T07:07:07.906Z,94.26
2018-11-01T07:12:11.476Z,92.93
2018-11-01T07:17:15.187Z,92.31
2018-11-01T07:22:18.701Z,91.95
2018-11-01T07:27:22.237Z,92.09
2018-11-01T07:32:25.819Z,90.45
2018-11-01T07:37:29.528Z,89.69
2018-11-01T07:42:33.246Z,88.47
2018-11-01T07:47:36.864Z,86.23
2018-11-01T07:52:45.911Z,86.80
2018-11-01T07:57:49.457Z,84.44
2018-11-01T08:02:52.998Z,83.87
2018-11-01T08:07:56.643Z,84.71
2018-11-01T08:13:00.181Z,80.84
2018-11-01T08:18:03.822Z,83.55
2018-11-01T08:23:10.479Z,83.07
2018-11-01T08:28:14.236Z,81.22
2018-11-01T08:33:17.773Z,81.40
2018-11-01T08:38:21.385Z,83.54
2018-11-01T08:43:25.165Z,86.14
2018-11-01T08:48:28.755Z,84.38
2018-11-01T08:53:32.471Z,82.89
2018-11-01T08:58:36.062Z,81.03
2018-11-01T09:03:39.617Z,77.63
2018-11-01T09:08:43.242Z,77.89
2018-11-01T09:13:46.795Z,79.34
2018-11-01T09:18:50.311Z,78.69
2018-11-01T09:23:53.908Z,77.18
2018-11-01T09:28:57.496Z,76.42
2018-11-01T09:34:01.039Z,77.77
2018-11-01T09:39:06.138Z,78.23
2018-11-01T09:44:09.852Z,76.72
2018-11-01T09:49:13.580Z,78.26
2018-11-01T09:54:17.218Z,77.80
2018-11-01T09:59:20.838Z,76.51
2018-11-01T10:04:24.428Z,77.72
2018-11-01T10:09:28.571Z,75.43
2018-11-01T10:14:32.241Z,75.00
2018-11-01T10:19:35.777Z,75.95
2018-11-01T10:24:39.986Z,75.19
2018-11-01T10:29:43.576Z,75.95
2018-11-01T10:34:47.146Z,74.86
2018-11-01T10:39:50.848Z,73.65
2018-11-01T10:44:54.606Z,73.07
2018-11-01T10:49:58.599Z,71.99
2018-11-01T10:55:02.208Z,72.26
2018-11-01T11:00:07.981Z,72.10
2018-11-01T11:05:11.676Z,70.16
2018-11-01T11:10:15.735Z,70.17
2018-11-01T11:15:19.726Z,69.55
2018-11-01T11:20:23.463Z,67.11
2018-11-01T11:25:26.912Z,71.58
2018-11-01T11:30:39.636Z,74.24
2018-11-01T11:35:43.324Z,73.90
2018-11-01T11:40:47.967Z,73.07
2018-11-01T11:45:51.575Z,72.05
2018-11-01T11:50:56.380Z,71.33
2018-11-01T11:56:01.148Z,73.00
2018-11-01T12:01:04.819Z,73.34
2018-11-01T12:06:08.553Z,71.28
2018-11-01T12:11:12.513Z,74.82
2018-11-01T12:16:16.135Z,73.18
2018-11-01T12:21:19.868Z,71.80
2018-11-01T12:26:23.425Z,73.50
2018-11-01T12:31:27.067Z,74.94
2018-11-01T12:36:30.649Z,76.82
2018-11-01T12:41:34.334Z,77.32
2018-11-01T12:46:37.845Z,77.13
2018-11-01T12:51:41.483Z,80.02
2018-11-01T12:56:45.137Z,82.51
2018-11-01T13:01:48.790Z,80.95
2018-11-01T13:06:52.404Z,78.98
2018-11-01T13:11:56.063Z,81.69
2018-11-01T13:16:59.785Z,83.35
2018-11-01T13:22:03.358Z,82.26
2018-11-01T13:27:07.051Z,80.58
2018-11-01T13:32:10.609Z,79.61
2018-11-01T13:37:14.240Z,80.53
2018-11-01T13:42:17.789Z,79.67
2018-11-01T13:47:21.503Z,77.42
2018-11-01T13:52:24.959Z,77.07
2018-11-01T13:57:28.497Z,79.00
2018-11-01T14:02:39.319Z,86.83
2018-11-01T14:07:43.551Z,93.11
2018-11-01T14:12:47.203Z,93.51
2018-11-01T14:17:50.948Z,96.84
2018-11-01T14:22:54.579Z,97.81
2018-11-01T14:27:58.194Z,100.00
2018-11-01T14:33:01.736Z,100.00
2018-11-01T14:38:05.646Z,100.00
2018-11-01T14:43:11.040Z,100.00
2018-11-01T14:48:14.673Z,100.00
2018-11-01T14:53:18.982Z,100.00
2018-11-01T14:58:22.654Z,100.00
2018-11-01T15:03:25.537Z,100.00
2018-11-01T15:08:29.100Z,100.00
2018-11-01T15:13:32.801Z,100.00
2018-11-01T15:18:36.505Z,100.00
2018-11-01T15:23:40.074Z,100.00
2018-11-01T15:28:43.704Z,100.00
2018-11-01T15:33:47.504Z,100.00
2018-11-01T15:38:51.025Z,100.00
2018-11-01T15:43:54.602Z,100.00
2018-11-01T15:48:58.161Z,100.00
2018-11-01T15:54:01.737Z,100.00
2018-11-01T15:59:05.491Z,100.00
2018-11-01T16:04:09.186Z,100.00
2018-11-01T16:09:13.784Z,100.00
2018-11-01T16:14:17.425Z,100.00
2018-11-01T16:19:21.294Z,100.00
2018-11-01T16:24:24.923Z,100.00
2018-11-01T16:29:28.547Z,100.00
2018-11-01T16:34:32.154Z,100.00
2018-11-01T16:39:35.811Z,100.00
2018-11-01T16:44:39.517Z,100.00
2018-11-01T16:49:43.157Z,100.00
2018-11-01T16:54:47.716Z,100.00
2018-11-01T16:59:51.324Z,100.00
2018-11-01T17:04:54.985Z,100.00
2018-11-01T17:09:58.728Z,100.00
2018-11-01T17:15:02.302Z,100.00
2018-11-01T17:20:06.748Z,100.00
2018-11-01T17:25:10.572Z,100.00
2018-11-01T17:30:17.905Z,100.00
2018-11-01T17:35:22.007Z,100.00
2018-11-01T17:40:25.647Z,100.00
2018-11-01T17:45:30.407Z,100.00
2018-11-01T17:50:34.238Z,100.00
2018-11-01T17:55:37.873Z,100.00
2018-11-01T18:00:41.553Z,100.00
2018-11-01T18:05:45.408Z,100.00
2018-11-01T18:10:49.056Z,100.00
2018-11-01T18:15:52.823Z,88.29
2018-11-01T18:20:56.610Z,77.61
2018-11-01T18:26:00.396Z,69.95
2018-11-01T18:31:04.034Z,38.99
2018-11-01T18:36:07.754Z,30.58
2018-11-01T18:41:11.335Z,24.85
2018-11-01T18:46:15.012Z,20.99
2018-11-01T18:51:19.526Z,23.31
2018-11-01T18:56:23.949Z,30.17
2018-11-01T19:01:27.605Z,36.95
2018-11-01T19:06:31.272Z,47.49
2018-11-01T19:11:34.916Z,60.39
2018-11-01T19:16:38.603Z,66.61
2018-11-01T19:21:42.408Z,61.48
2018-11-01T19:26:46.032Z,62.86
2018-11-01T19:31:49.886Z,63.25
2018-11-01T19:36:53.486Z,66.80
2018-11-01T19:41:57.234Z,71.54
2018-11-01T19:47:00.845Z,70.52
2018-11-01T19:52:04.549Z,70.90
2018-11-01T19:57:08.548Z,67.91
2018-11-01T20:02:12.306Z,66.61
2018-11-01T20:07:16.073Z,68.52
2018-11-01T20:12:19.710Z,68.74
2018-11-01T20:17:23.307Z,74.14
2018-11-01T20:22:28.808Z,74.50
2018-11-01T20:27:32.684Z,77.50
2018-11-01T20:32:36.343Z,74.82
2018-11-01T20:37:40.243Z,77.01
2018-11-01T20:42:44.392Z,75.77
2018-11-01T20:47:50.052Z,74.53
2018-11-01T20:52:54.961Z,72.42
2018-11-01T20:58:03.492Z,73.83
2018-11-01T21:03:07.326Z,63.12
2018-11-01T21:08:11.027Z,52.14
2018-11-01T21:13:14.845Z,52.68
2018-11-01T21:18:20.307Z,52.54
2018-11-01T21:23:23.877Z,56.23
2018-11-01T21:28:27.488Z,62.81
2018-11-01T21:33:31.463Z,68.86
2018-11-01T21:38:35.098Z,73.55
2018-11-01T21:43:38.697Z,70.45
2018-11-01T21:48:42.354Z,85.91
2018-11-01T21:53:46.059Z,93.42
2018-11-01T21:58:49.617Z,95.76
2018-11-01T22:03:53.288Z,100.00
2018-11-01T22:08:56.938Z,100.00
2018-11-01T22:14:00.562Z,100.00
2018-11-01T22:19:04.146Z,100.00
2018-11-01T22:24:07.740Z,100.00
2018-11-01T22:29:11.288Z,99.17
2018-11-01T22:34:15.336Z,98.54
2018-11-01T22:39:19.072Z,98.23
2018-11-01T22:44:22.694Z,99.91
2018-11-01T22:49:26.305Z,100.00
2018-11-01T22:54:29.957Z,100.00
2018-11-01T22:59:33.539Z,100.00
2018-11-01T23:04:37.137Z,100.00
2018-11-01T23:09:40.737Z,100.00
2018-11-01T23:14:45.338Z,100.00
2018-11-01T23:19:48.931Z,100.00
2018-11-01T23:24:52.523Z,100.00
2018-11-01T23:30:04.297Z,100.00
2018-11-01T23:35:08.176Z,100.00
2018-11-01T23:40:17.141Z,100.00
2018-11-01T23:45:25.872Z,100.00
2018-11-01T23:50:41.580Z,100.00
2018-11-01T23:55:45.227Z,100.00
